sensor_id;sensor_type;location;lat;lon;timestamp;temperature;humidity
7044;DHT22;57890;52.36301240;9.76001620;2022-10-26T00:00:08;13.70;99.90
7044;DHT22;57890;52.36301240;9.76001620;2022-10-26T00:02:40;13.70;99.90
7044;DHT22;57890;52.36301240;9.76001620;2022-10-26T00:05:08;13.70;99.90
7044;DHT22;57890;52.36301240;9.76001620;2022-10-26T00:07:35;13.70;99.90
7044;DHT22;57890;52.36301240;9.76001620;2022-10-26T00:10:02;13.60;99.90
7044;DHT22;57890;52.36301240;9.76001620;2022-10-26T00:12:29;13.70;99.90
7044;DHT22;57890;52.36301240;9.76001620;2022-10-26T00:14:55;13.60;99.90
7044;DHT22;57890;52.36301240;9.76001620;2022-10-26T00:17:22;13.60;99.90
7044;DHT22;57890;52.36301240;9.76001620;2022-10-26T00:19:50;13.60;99.90
7044;DHT22;57890;52.36301240;9.76001620;2022-10-26T00:22:17;13.60;99.90
7044;DHT22;57890;52.36301240;9.76001620;2022-10-26T00:24:44;13.50;99.90
7044;DHT22;57890;52.36301240;9.76001620;2022-10-26T00:27:11;13.50;99.90
7044;DHT22;57890;52.36301240;9.76001620;2022-10-26T00:29:38;13.50;99.90
7044;DHT22;57890;52.36301240;9.76001620;2022-10-26T00:32:05;13.50;99.90
7044;DHT22;57890;52.36301240;9.76001620;2022-10-26T00:34:32;13.50;99.90
7044;DHT22;57890;52.36301240;9.76001620;2022-10-26T00:37:00;13.50;99.90
7044;DHT22;57890;52.36301240;9.76001620;2022-10-26T00:39:27;13.50;99.90
7044;DHT22;57890;52.36301240;9.76001620;2022-10-26T00:41:54;13.50;99.90
7044;DHT22;57890;52.36301240;9.76001620;2022-10-26T00:44:44;13.50;99.90
7044;DHT22;57890;52.36301240;9.76001620;2022-10-26T00:47:27;13.50;99.90
7044;DHT22;57890;52.36301240;9.76001620;2022-10-26T00:49:56;13.40;99.90
7044;DHT22;57890;52.36301240;9.76001620;2022-10-26T00:52:27;13.40;99.90
7044;DHT22;57890;52.36301240;9.76001620;2022-10-26T00:54:55;13.40;99.90
7044;DHT22;57890;52.36301240;9.76001620;2022-10-26T00:57:22;13.40;99.90
7044;DHT22;57890;52.36301240;9.76001620;2022-10-26T00:59:50;13.40;99.90
7044;DHT22;57890;52.36301240;9.76001620;2022-10-26T01:02:18;13.40;99.90
7044;DHT22;57890;52.36301240;9.76001620;2022-10-26T01:04:45;13.40;99.90
7044;DHT22;57890;52.36301240;9.76001620;2022-10-26T01:07:12;13.40;99.90
7044;DHT22;57890;52.36301240;9.76001620;2022-10-26T01:09:41;13.40;99.90
7044;DHT22;57890;52.36301240;9.76001620;2022-10-26T01:12:08;13.40;99.90
7044;DHT22;57890;52.36301240;9.76001620;2022-10-26T01:14:35;13.40;99.90
7044;DHT22;57890;52.36301240;9.76001620;2022-10-26T01:17:09;13.40;99.90
7044;DHT22;57890;52.36301240;9.76001620;2022-10-26T01:19:59;13.40;99.90
7044;DHT22;57890;52.36301240;9.76001620;2022-10-26T01:22:37;13.40;99.90
7044;DHT22;57890;52.36301240;9.76001620;2022-10-26T01:25:15;13.40;99.90
7044;DHT22;57890;52.36301240;9.76001620;2022-10-26T01:27:49;13.30;99.90
7044;DHT22;57890;52.36301240;9.76001620;2022-10-26T01:30:23;13.30;99.90
7044;DHT22;57890;52.36301240;9.76001620;2022-10-26T01:33:13;13.30;99.90
7044;DHT22;57890;52.36301240;9.76001620;2022-10-26T01:35:46;13.30;99.90
7044;DHT22;57890;52.36301240;9.76001620;2022-10-26T01:38:24;13.20;99.90
7044;DHT22;57890;52.36301240;9.76001620;2022-10-26T01:40:58;13.20;99.90
7044;DHT22;57890;52.36301240;9.76001620;2022-10-26T01:43:28;13.20;99.90
7044;DHT22;57890;52.36301240;9.76001620;2022-10-26T01:45:57;13.20;99.90
7044;DHT22;57890;52.36301240;9.76001620;2022-10-26T01:48:24;13.20;99.90
7044;DHT22;57890;52.36301240;9.76001620;2022-10-26T01:50:53;13.20;99.90
7044;DHT22;57890;52.36301240;9.76001620;2022-10-26T01:53:25;13.20;99.90
7044;DHT22;57890;52.36301240;9.76001620;2022-10-26T01:55:54;13.10;99.90
7044;DHT22;57890;52.36301240;9.76001620;2022-10-26T02:01:38;13.10;99.90
7044;DHT22;57890;52.36301240;9.76001620;2022-10-26T02:04:19;13.10;99.90
7044;DHT22;57890;52.36301240;9.76001620;2022-10-26T02:06:59;13.10;99.90
7044;DHT22;57890;52.36301240;9.76001620;2022-10-26T02:09:33;13.00;99.90
7044;DHT22;57890;52.36301240;9.76001620;2022-10-26T02:12:09;13.00;99.90
7044;DHT22;57890;52.36301240;9.76001620;2022-10-26T02:14:46;13.00;99.90
7044;DHT22;57890;52.36301240;9.76001620;2022-10-26T02:17:22;12.90;99.90
7044;DHT22;57890;52.36301240;9.76001620;2022-10-26T02:19:56;12.90;99.90
7044;DHT22;57890;52.36301240;9.76001620;2022-10-26T02:22:28;12.90;99.90
7044;DHT22;57890;52.36301240;9.76001620;2022-10-26T02:25:00;12.90;99.90
7044;DHT22;57890;52.36301240;9.76001620;2022-10-26T02:27:33;12.90;99.90
7044;DHT22;57890;52.36301240;9.76001620;2022-10-26T02:30:01;12.90;99.90
7044;DHT22;57890;52.36301240;9.76001620;2022-10-26T02:32:33;12.90;99.90
7044;DHT22;57890;52.36301240;9.76001620;2022-10-26T02:35:04;12.90;99.90
7044;DHT22;57890;52.36301240;9.76001620;2022-10-26T02:37:33;12.90;99.90
7044;DHT22;57890;52.36301240;9.76001620;2022-10-26T02:40:05;12.90;99.90
7044;DHT22;57890;52.36301240;9.76001620;2022-10-26T02:42:33;12.90;99.90
7044;DHT22;57890;52.36301240;9.76001620;2022-10-26T02:45:04;12.90;99.90
7044;DHT22;57890;52.36301240;9.76001620;2022-10-26T02:47:34;12.90;99.90
7044;DHT22;57890;52.36301240;9.76001620;2022-10-26T02:50:01;12.90;99.90
7044;DHT22;57890;52.36301240;9.76001620;2022-10-26T02:52:33;12.90;99.90
7044;DHT22;57890;52.36301240;9.76001620;2022-10-26T02:55:06;12.90;99.90
7044;DHT22;57890;52.36301240;9.76001620;2022-10-26T02:57:36;13.00;99.90
7044;DHT22;57890;52.36301240;9.76001620;2022-10-26T03:00:05;13.00;99.90
7044;DHT22;57890;52.36301240;9.76001620;2022-10-26T03:02:34;13.00;99.90
7044;DHT22;57890;52.36301240;9.76001620;2022-10-26T03:05:08;13.00;99.90
7044;DHT22;57890;52.36301240;9.76001620;2022-10-26T03:07:36;13.00;99.90
7044;DHT22;57890;52.36301240;9.76001620;2022-10-26T03:10:03;13.10;99.90
7044;DHT22;57890;52.36301240;9.76001620;2022-10-26T03:12:30;13.10;99.90
7044;DHT22;57890;52.36301240;9.76001620;2022-10-26T03:14:57;13.00;99.90
7044;DHT22;57890;52.36301240;9.76001620;2022-10-26T03:17:24;13.10;99.90
7044;DHT22;57890;52.36301240;9.76001620;2022-10-26T03:19:52;13.10;99.90
7044;DHT22;57890;52.36301240;9.76001620;2022-10-26T03:22:19;13.10;99.90
7044;DHT22;57890;52.36301240;9.76001620;2022-10-26T03:24:46;13.10;99.90
7044;DHT22;57890;52.36301240;9.76001620;2022-10-26T03:27:13;13.10;99.90
7044;DHT22;57890;52.36301240;9.76001620;2022-10-26T03:29:40;13.10;99.90
7044;DHT22;57890;52.36301240;9.76001620;2022-10-26T03:32:07;13.10;99.90
7044;DHT22;57890;52.36301240;9.76001620;2022-10-26T03:34:34;13.10;99.90
7044;DHT22;57890;52.36301240;9.76001620;2022-10-26T03:37:02;13.10;99.90
7044;DHT22;57890;52.36301240;9.76001620;2022-10-26T03:39:29;13.10;99.90
7044;DHT22;57890;52.36301240;9.76001620;2022-10-26T03:41:56;13.10;99.90
7044;DHT22;57890;52.36301240;9.76001620;2022-10-26T03:44:24;13.10;99.90
7044;DHT22;57890;52.36301240;9.76001620;2022-10-26T03:46:50;13.10;99.90
7044;DHT22;57890;52.36301240;9.76001620;2022-10-26T03:49:17;13.10;99.90
7044;DHT22;57890;52.36301240;9.76001620;2022-10-26T03:51:44;13.10;99.90
7044;DHT22;57890;52.36301240;9.76001620;2022-10-26T03:54:12;13.10;99.90
7044;DHT22;57890;52.36301240;9.76001620;2022-10-26T03:56:39;13.10;99.90
7044;DHT22;57890;52.36301240;9.76001620;2022-10-26T03:59:06;13.10;99.90
7044;DHT22;57890;52.36301240;9.76001620;2022-10-26T04:01:33;13.10;99.90
7044;DHT22;57890;52.36301240;9.76001620;2022-10-26T04:04:00;13.10;99.90
7044;DHT22;57890;52.36301240;9.76001620;2022-10-26T04:06:27;13.10;99.90
7044;DHT22;57890;52.36301240;9.76001620;2022-10-26T04:08:54;13.10;99.90
7044;DHT22;57890;52.36301240;9.76001620;2022-10-26T04:11:27;13.10;99.90
7044;DHT22;57890;52.36301240;9.76001620;2022-10-26T04:13:54;13.10;99.90
7044;DHT22;57890;52.36301240;9.76001620;2022-10-26T04:16:24;13.00;99.90
7044;DHT22;57890;52.36301240;9.76001620;2022-10-26T04:18:51;13.00;99.90
7044;DHT22;57890;52.36301240;9.76001620;2022-10-26T04:21:18;13.00;99.90
7044;DHT22;57890;52.36301240;9.76001620;2022-10-26T04:23:45;13.00;99.90
7044;DHT22;57890;52.36301240;9.76001620;2022-10-26T04:26:11;13.00;99.90
7044;DHT22;57890;52.36301240;9.76001620;2022-10-26T04:28:40;13.00;99.90
7044;DHT22;57890;52.36301240;9.76001620;2022-10-26T04:31:06;13.00;99.90
7044;DHT22;57890;52.36301240;9.76001620;2022-10-26T04:33:33;13.00;99.90
7044;DHT22;57890;52.36301240;9.76001620;2022-10-26T04:36:00;13.00;99.90
7044;DHT22;57890;52.36301240;9.76001620;2022-10-26T04:38:27;13.00;99.90
7044;DHT22;57890;52.36301240;9.76001620;2022-10-26T04:40:54;13.00;99.90
7044;DHT22;57890;52.36301240;9.76001620;2022-10-26T04:43:21;13.00;99.90
7044;DHT22;57890;52.36301240;9.76001620;2022-10-26T04:45:49;12.90;99.90
7044;DHT22;57890;52.36301240;9.76001620;2022-10-26T04:48:19;12.90;99.90
7044;DHT22;57890;52.36301240;9.76001620;2022-10-26T04:50:46;12.90;99.90
7044;DHT22;57890;52.36301240;9.76001620;2022-10-26T04:53:14;12.90;99.90
7044;DHT22;57890;52.36301240;9.76001620;2022-10-26T04:55:41;12.90;99.90
7044;DHT22;57890;52.36301240;9.76001620;2022-10-26T04:58:08;13.00;99.90
7044;DHT22;57890;52.36301240;9.76001620;2022-10-26T05:00:35;13.00;99.90
7044;DHT22;57890;52.36301240;9.76001620;2022-10-26T05:03:04;13.00;99.90
7044;DHT22;57890;52.36301240;9.76001620;2022-10-26T05:05:33;13.00;99.90
7044;DHT22;57890;52.36301240;9.76001620;2022-10-26T05:08:01;13.00;99.90
7044;DHT22;57890;52.36301240;9.76001620;2022-10-26T05:10:28;12.90;99.90
7044;DHT22;57890;52.36301240;9.76001620;2022-10-26T05:12:56;12.90;99.90
7044;DHT22;57890;52.36301240;9.76001620;2022-10-26T05:15:25;12.90;99.90
7044;DHT22;57890;52.36301240;9.76001620;2022-10-26T05:17:56;12.90;99.90
7044;DHT22;57890;52.36301240;9.76001620;2022-10-26T05:20:25;12.90;99.90
7044;DHT22;57890;52.36301240;9.76001620;2022-10-26T05:22:54;12.90;99.90
7044;DHT22;57890;52.36301240;9.76001620;2022-10-26T05:25:21;12.90;99.90
7044;DHT22;57890;52.36301240;9.76001620;2022-10-26T05:27:48;13.00;99.90
7044;DHT22;57890;52.36301240;9.76001620;2022-10-26T05:30:15;12.90;99.90
7044;DHT22;57890;52.36301240;9.76001620;2022-10-26T05:32:42;13.00;99.90
7044;DHT22;57890;52.36301240;9.76001620;2022-10-26T05:35:09;12.90;99.90
7044;DHT22;57890;52.36301240;9.76001620;2022-10-26T05:37:37;12.90;99.90
7044;DHT22;57890;52.36301240;9.76001620;2022-10-26T05:40:05;12.90;99.90
7044;DHT22;57890;52.36301240;9.76001620;2022-10-26T05:42:32;12.90;99.90
7044;DHT22;57890;52.36301240;9.76001620;2022-10-26T05:44:59;12.90;99.90
7044;DHT22;57890;52.36301240;9.76001620;2022-10-26T05:47:26;12.90;99.90
7044;DHT22;57890;52.36301240;9.76001620;2022-10-26T05:49:53;12.90;99.90
7044;DHT22;57890;52.36301240;9.76001620;2022-10-26T05:52:20;12.90;99.90
7044;DHT22;57890;52.36301240;9.76001620;2022-10-26T05:54:48;12.90;99.90
7044;DHT22;57890;52.36301240;9.76001620;2022-10-26T05:57:15;12.90;99.90
7044;DHT22;57890;52.36301240;9.76001620;2022-10-26T05:59:43;12.90;99.90
7044;DHT22;57890;52.36301240;9.76001620;2022-10-26T06:02:17;12.90;99.90
7044;DHT22;57890;52.36301240;9.76001620;2022-10-26T06:04:49;12.90;99.90
7044;DHT22;57890;52.36301240;9.76001620;2022-10-26T06:07:18;12.80;99.90
7044;DHT22;57890;52.36301240;9.76001620;2022-10-26T06:09:48;12.90;99.90
7044;DHT22;57890;52.36301240;9.76001620;2022-10-26T06:12:15;12.90;99.90
7044;DHT22;57890;52.36301240;9.76001620;2022-10-26T06:14:43;12.90;99.90
7044;DHT22;57890;52.36301240;9.76001620;2022-10-26T06:17:19;12.90;99.90
7044;DHT22;57890;52.36301240;9.76001620;2022-10-26T06:20:00;12.90;99.90
7044;DHT22;57890;52.36301240;9.76001620;2022-10-26T06:22:43;12.90;99.90
7044;DHT22;57890;52.36301240;9.76001620;2022-10-26T06:25:22;12.90;99.90
7044;DHT22;57890;52.36301240;9.76001620;2022-10-26T06:27:59;12.90;99.90
7044;DHT22;57890;52.36301240;9.76001620;2022-10-26T06:30:29;12.90;99.90
7044;DHT22;57890;52.36301240;9.76001620;2022-10-26T06:32:56;12.90;99.90
7044;DHT22;57890;52.36301240;9.76001620;2022-10-26T06:35:32;12.90;99.90
7044;DHT22;57890;52.36301240;9.76001620;2022-10-26T06:38:04;12.90;99.90
7044;DHT22;57890;52.36301240;9.76001620;2022-10-26T06:40:35;12.90;99.90
7044;DHT22;57890;52.36301240;9.76001620;2022-10-26T06:43:04;12.90;99.90
7044;DHT22;57890;52.36301240;9.76001620;2022-10-26T06:45:35;12.90;99.90
7044;DHT22;57890;52.36301240;9.76001620;2022-10-26T06:48:07;12.90;99.90
7044;DHT22;57890;52.36301240;9.76001620;2022-10-26T06:50:36;13.00;99.90
7044;DHT22;57890;52.36301240;9.76001620;2022-10-26T06:53:13;13.00;99.90
7044;DHT22;57890;52.36301240;9.76001620;2022-10-26T06:55:47;13.00;99.90
7044;DHT22;57890;52.36301240;9.76001620;2022-10-26T06:58:16;13.00;99.90
7044;DHT22;57890;52.36301240;9.76001620;2022-10-26T07:00:46;13.00;99.90
7044;DHT22;57890;52.36301240;9.76001620;2022-10-26T07:03:14;13.00;99.90
7044;DHT22;57890;52.36301240;9.76001620;2022-10-26T07:05:42;13.00;99.90
7044;DHT22;57890;52.36301240;9.76001620;2022-10-26T07:08:09;13.00;99.90
7044;DHT22;57890;52.36301240;9.76001620;2022-10-26T07:10:36;13.00;99.90
7044;DHT22;57890;52.36301240;9.76001620;2022-10-26T07:13:05;13.10;99.90
7044;DHT22;57890;52.36301240;9.76001620;2022-10-26T07:15:32;13.10;99.90
7044;DHT22;57890;52.36301240;9.76001620;2022-10-26T07:17:59;13.20;99.90
7044;DHT22;57890;52.36301240;9.76001620;2022-10-26T07:20:26;13.20;99.90
7044;DHT22;57890;52.36301240;9.76001620;2022-10-26T07:22:53;13.20;99.90
7044;DHT22;57890;52.36301240;9.76001620;2022-10-26T07:25:21;13.20;99.90
7044;DHT22;57890;52.36301240;9.76001620;2022-10-26T07:27:48;13.30;99.90
7044;DHT22;57890;52.36301240;9.76001620;2022-10-26T07:30:17;13.30;99.90
7044;DHT22;57890;52.36301240;9.76001620;2022-10-26T07:32:44;13.30;99.90
7044;DHT22;57890;52.36301240;9.76001620;2022-10-26T07:35:11;13.40;99.90
7044;DHT22;57890;52.36301240;9.76001620;2022-10-26T07:37:38;13.40;99.90
7044;DHT22;57890;52.36301240;9.76001620;2022-10-26T07:40:06;13.40;99.90
7044;DHT22;57890;52.36301240;9.76001620;2022-10-26T07:42:33;13.50;99.90
7044;DHT22;57890;52.36301240;9.76001620;2022-10-26T07:45:02;13.50;99.90
7044;DHT22;57890;52.36301240;9.76001620;2022-10-26T07:47:30;13.60;99.90
7044;DHT22;57890;52.36301240;9.76001620;2022-10-26T07:49:57;13.60;99.90
7044;DHT22;57890;52.36301240;9.76001620;2022-10-26T07:52:24;13.60;99.90
7044;DHT22;57890;52.36301240;9.76001620;2022-10-26T07:54:50;13.70;99.90
7044;DHT22;57890;52.36301240;9.76001620;2022-10-26T07:57:17;13.70;99.90
7044;DHT22;57890;52.36301240;9.76001620;2022-10-26T07:59:44;13.70;99.90
7044;DHT22;57890;52.36301240;9.76001620;2022-10-26T08:02:11;13.80;99.90
7044;DHT22;57890;52.36301240;9.76001620;2022-10-26T08:04:39;13.80;99.90
7044;DHT22;57890;52.36301240;9.76001620;2022-10-26T08:07:06;13.80;99.90
7044;DHT22;57890;52.36301240;9.76001620;2022-10-26T08:09:33;13.90;99.90
7044;DHT22;57890;52.36301240;9.76001620;2022-10-26T08:12:00;13.90;99.90
7044;DHT22;57890;52.36301240;9.76001620;2022-10-26T08:14:27;13.90;99.90
7044;DHT22;57890;52.36301240;9.76001620;2022-10-26T08:16:54;13.90;99.90
7044;DHT22;57890;52.36301240;9.76001620;2022-10-26T08:19:20;14.00;99.90
7044;DHT22;57890;52.36301240;9.76001620;2022-10-26T08:21:49;14.00;99.90
7044;DHT22;57890;52.36301240;9.76001620;2022-10-26T08:24:15;14.00;99.90
7044;DHT22;57890;52.36301240;9.76001620;2022-10-26T08:26:42;14.00;99.90
7044;DHT22;57890;52.36301240;9.76001620;2022-10-26T08:29:09;14.00;99.90
7044;DHT22;57890;52.36301240;9.76001620;2022-10-26T08:31:36;14.10;99.90
7044;DHT22;57890;52.36301240;9.76001620;2022-10-26T08:34:03;14.10;99.90
7044;DHT22;57890;52.36301240;9.76001620;2022-10-26T08:36:30;14.10;99.90
7044;DHT22;57890;52.36301240;9.76001620;2022-10-26T08:38:58;14.20;99.90
7044;DHT22;57890;52.36301240;9.76001620;2022-10-26T08:41:33;14.10;99.90
7044;DHT22;57890;52.36301240;9.76001620;2022-10-26T08:44:07;14.10;99.90
7044;DHT22;57890;52.36301240;9.76001620;2022-10-26T08:46:40;14.20;99.90
7044;DHT22;57890;52.36301240;9.76001620;2022-10-26T08:49:17;14.20;99.90
7044;DHT22;57890;52.36301240;9.76001620;2022-10-26T08:51:45;14.20;99.90
7044;DHT22;57890;52.36301240;9.76001620;2022-10-26T08:54:18;14.30;99.90
7044;DHT22;57890;52.36301240;9.76001620;2022-10-26T08:56:47;14.30;99.90
7044;DHT22;57890;52.36301240;9.76001620;2022-10-26T08:59:23;14.30;99.90
7044;DHT22;57890;52.36301240;9.76001620;2022-10-26T09:01:55;14.40;99.90
7044;DHT22;57890;52.36301240;9.76001620;2022-10-26T09:04:28;14.40;99.90
7044;DHT22;57890;52.36301240;9.76001620;2022-10-26T09:07:00;14.40;99.90
7044;DHT22;57890;52.36301240;9.76001620;2022-10-26T09:09:41;14.40;99.90
7044;DHT22;57890;52.36301240;9.76001620;2022-10-26T09:12:15;14.50;99.90
7044;DHT22;57890;52.36301240;9.76001620;2022-10-26T09:14:55;14.50;99.90
7044;DHT22;57890;52.36301240;9.76001620;2022-10-26T09:17:33;14.60;99.90
7044;DHT22;57890;52.36301240;9.76001620;2022-10-26T09:20:36;14.60;99.90
7044;DHT22;57890;52.36301240;9.76001620;2022-10-26T09:23:10;14.70;99.90
7044;DHT22;57890;52.36301240;9.76001620;2022-10-26T09:25:41;14.70;99.90
7044;DHT22;57890;52.36301240;9.76001620;2022-10-26T09:28:13;14.70;99.90
7044;DHT22;57890;52.36301240;9.76001620;2022-10-26T09:30:43;14.80;99.90
7044;DHT22;57890;52.36301240;9.76001620;2022-10-26T09:33:14;14.90;99.90
7044;DHT22;57890;52.36301240;9.76001620;2022-10-26T09:35:43;14.90;99.90
7044;DHT22;57890;52.36301240;9.76001620;2022-10-26T09:38:14;15.00;99.90
7044;DHT22;57890;52.36301240;9.76001620;2022-10-26T09:40:49;15.00;99.90
7044;DHT22;57890;52.36301240;9.76001620;2022-10-26T09:43:23;15.10;99.90
7044;DHT22;57890;52.36301240;9.76001620;2022-10-26T09:45:51;15.10;99.90
7044;DHT22;57890;52.36301240;9.76001620;2022-10-26T09:48:24;15.20;99.90
7044;DHT22;57890;52.36301240;9.76001620;2022-10-26T09:50:53;15.20;99.90
7044;DHT22;57890;52.36301240;9.76001620;2022-10-26T09:53:21;15.30;99.90
7044;DHT22;57890;52.36301240;9.76001620;2022-10-26T09:55:54;15.30;99.90
7044;DHT22;57890;52.36301240;9.76001620;2022-10-26T09:58:28;15.30;99.90
7044;DHT22;57890;52.36301240;9.76001620;2022-10-26T10:00:56;15.40;99.90
7044;DHT22;57890;52.36301240;9.76001620;2022-10-26T10:03:25;15.50;99.90
7044;DHT22;57890;52.36301240;9.76001620;2022-10-26T10:05:53;15.50;99.90
7044;DHT22;57890;52.36301240;9.76001620;2022-10-26T10:08:21;15.60;99.90
7044;DHT22;57890;52.36301240;9.76001620;2022-10-26T10:11:11;15.60;99.90
7044;DHT22;57890;52.36301240;9.76001620;2022-10-26T10:13:40;15.70;99.90
7044;DHT22;57890;52.36301240;9.76001620;2022-10-26T10:16:11;15.70;99.90
7044;DHT22;57890;52.36301240;9.76001620;2022-10-26T10:18:40;15.80;99.90
7044;DHT22;57890;52.36301240;9.76001620;2022-10-26T10:21:08;15.80;99.90
7044;DHT22;57890;52.36301240;9.76001620;2022-10-26T10:23:48;15.80;99.90
7044;DHT22;57890;52.36301240;9.76001620;2022-10-26T10:26:18;15.80;99.90
7044;DHT22;57890;52.36301240;9.76001620;2022-10-26T10:28:56;15.90;99.90
7044;DHT22;57890;52.36301240;9.76001620;2022-10-26T10:31:27;15.90;99.90
7044;DHT22;57890;52.36301240;9.76001620;2022-10-26T10:33:54;15.90;99.90
7044;DHT22;57890;52.36301240;9.76001620;2022-10-26T10:36:23;16.00;99.90
7044;DHT22;57890;52.36301240;9.76001620;2022-10-26T10:38:52;16.00;99.90
7044;DHT22;57890;52.36301240;9.76001620;2022-10-26T10:41:25;16.00;99.90
7044;DHT22;57890;52.36301240;9.76001620;2022-10-26T10:43:55;16.10;99.90
7044;DHT22;57890;52.36301240;9.76001620;2022-10-26T10:46:25;16.10;99.90
7044;DHT22;57890;52.36301240;9.76001620;2022-10-26T10:48:59;16.10;99.90
7044;DHT22;57890;52.36301240;9.76001620;2022-10-26T10:51:30;16.20;99.90
7044;DHT22;57890;52.36301240;9.76001620;2022-10-26T10:54:00;16.20;99.90
7044;DHT22;57890;52.36301240;9.76001620;2022-10-26T10:56:32;16.20;99.90
7044;DHT22;57890;52.36301240;9.76001620;2022-10-26T10:59:36;16.30;99.90
7044;DHT22;57890;52.36301240;9.76001620;2022-10-26T11:05:21;16.30;99.90
7044;DHT22;57890;52.36301240;9.76001620;2022-10-26T11:07:53;16.30;99.90
7044;DHT22;57890;52.36301240;9.76001620;2022-10-26T11:10:25;16.40;99.90
7044;DHT22;57890;52.36301240;9.76001620;2022-10-26T11:12:56;16.40;99.90
7044;DHT22;57890;52.36301240;9.76001620;2022-10-26T11:15:27;16.40;99.90
7044;DHT22;57890;52.36301240;9.76001620;2022-10-26T11:18:01;16.40;99.90
7044;DHT22;57890;52.36301240;9.76001620;2022-10-26T11:20:34;16.40;99.90
7044;DHT22;57890;52.36301240;9.76001620;2022-10-26T11:23:07;16.40;99.90
7044;DHT22;57890;52.36301240;9.76001620;2022-10-26T11:25:37;16.50;99.90
7044;DHT22;57890;52.36301240;9.76001620;2022-10-26T11:28:15;16.50;99.90
7044;DHT22;57890;52.36301240;9.76001620;2022-10-26T11:30:48;16.50;99.90
7044;DHT22;57890;52.36301240;9.76001620;2022-10-26T11:33:19;16.60;99.90
7044;DHT22;57890;52.36301240;9.76001620;2022-10-26T11:35:53;16.60;99.90
7044;DHT22;57890;52.36301240;9.76001620;2022-10-26T11:38:28;16.70;99.90
7044;DHT22;57890;52.36301240;9.76001620;2022-10-26T11:41:00;16.70;99.90
7044;DHT22;57890;52.36301240;9.76001620;2022-10-26T11:43:36;16.80;99.90
7044;DHT22;57890;52.36301240;9.76001620;2022-10-26T11:46:08;16.80;99.90
7044;DHT22;57890;52.36301240;9.76001620;2022-10-26T11:48:41;16.90;99.90
7044;DHT22;57890;52.36301240;9.76001620;2022-10-26T11:51:16;17.00;99.90
7044;DHT22;57890;52.36301240;9.76001620;2022-10-26T11:53:46;17.00;99.90
7044;DHT22;57890;52.36301240;9.76001620;2022-10-26T11:56:22;17.10;99.90
7044;DHT22;57890;52.36301240;9.76001620;2022-10-26T11:58:52;17.10;99.90
7044;DHT22;57890;52.36301240;9.76001620;2022-10-26T12:01:20;17.10;99.90
7044;DHT22;57890;52.36301240;9.76001620;2022-10-26T12:03:50;17.20;99.90
7044;DHT22;57890;52.36301240;9.76001620;2022-10-26T12:06:23;17.20;99.90
7044;DHT22;57890;52.36301240;9.76001620;2022-10-26T12:08:55;17.30;99.90
7044;DHT22;57890;52.36301240;9.76001620;2022-10-26T12:11:33;17.30;99.90
7044;DHT22;57890;52.36301240;9.76001620;2022-10-26T12:14:12;17.40;99.90
7044;DHT22;57890;52.36301240;9.76001620;2022-10-26T12:16:47;17.40;99.90
7044;DHT22;57890;52.36301240;9.76001620;2022-10-26T12:19:19;17.40;99.90
7044;DHT22;57890;52.36301240;9.76001620;2022-10-26T12:21:48;17.40;99.90
7044;DHT22;57890;52.36301240;9.76001620;2022-10-26T12:24:29;17.50;99.90
7044;DHT22;57890;52.36301240;9.76001620;2022-10-26T12:27:02;17.60;99.90
7044;DHT22;57890;52.36301240;9.76001620;2022-10-26T12:29:45;17.60;99.90
7044;DHT22;57890;52.36301240;9.76001620;2022-10-26T12:41:25;17.70;99.90
7044;DHT22;57890;52.36301240;9.76001620;2022-10-26T12:43:57;17.70;99.90
7044;DHT22;57890;52.36301240;9.76001620;2022-10-26T12:46:41;17.80;99.90
7044;DHT22;57890;52.36301240;9.76001620;2022-10-26T12:52:31;17.80;99.90
7044;DHT22;57890;52.36301240;9.76001620;2022-10-26T12:55:29;17.80;99.90
7044;DHT22;57890;52.36301240;9.76001620;2022-10-26T13:00:53;17.70;99.90
7044;DHT22;57890;52.36301240;9.76001620;2022-10-26T13:03:40;17.70;99.90
7044;DHT22;57890;52.36301240;9.76001620;2022-10-26T13:06:35;17.70;99.90
7044;DHT22;57890;52.36301240;9.76001620;2022-10-26T13:09:08;17.80;99.90
7044;DHT22;57890;52.36301240;9.76001620;2022-10-26T13:11:44;17.90;99.90
7044;DHT22;57890;52.36301240;9.76001620;2022-10-26T13:14:19;18.00;99.90
7044;DHT22;57890;52.36301240;9.76001620;2022-10-26T13:16:47;18.00;99.90
7044;DHT22;57890;52.36301240;9.76001620;2022-10-26T13:19:30;18.10;99.90
7044;DHT22;57890;52.36301240;9.76001620;2022-10-26T13:21:58;18.20;99.90
7044;DHT22;57890;52.36301240;9.76001620;2022-10-26T13:24:27;18.30;99.90
7044;DHT22;57890;52.36301240;9.76001620;2022-10-26T13:33:17;18.60;99.90
7044;DHT22;57890;52.36301240;9.76001620;2022-10-26T13:35:46;18.80;99.90
7044;DHT22;57890;52.36301240;9.76001620;2022-10-26T13:38:18;18.80;99.90
7044;DHT22;57890;52.36301240;9.76001620;2022-10-26T13:40:46;18.80;99.90
7044;DHT22;57890;52.36301240;9.76001620;2022-10-26T13:43:18;18.90;99.90
7044;DHT22;57890;52.36301240;9.76001620;2022-10-26T13:45:52;19.00;99.90
7044;DHT22;57890;52.36301240;9.76001620;2022-10-26T13:48:25;19.00;99.90
7044;DHT22;57890;52.36301240;9.76001620;2022-10-26T13:50:56;19.10;99.90
7044;DHT22;57890;52.36301240;9.76001620;2022-10-26T13:53:38;19.10;99.90
7044;DHT22;57890;52.36301240;9.76001620;2022-10-26T13:56:15;19.10;99.90
7044;DHT22;57890;52.36301240;9.76001620;2022-10-26T13:58:47;19.10;99.90
7044;DHT22;57890;52.36301240;9.76001620;2022-10-26T14:01:17;19.10;99.90
7044;DHT22;57890;52.36301240;9.76001620;2022-10-26T14:03:46;19.00;99.90
7044;DHT22;57890;52.36301240;9.76001620;2022-10-26T14:06:19;19.00;99.90
7044;DHT22;57890;52.36301240;9.76001620;2022-10-26T14:08:49;19.00;99.90
7044;DHT22;57890;52.36301240;9.76001620;2022-10-26T14:11:19;18.90;99.90
7044;DHT22;57890;52.36301240;9.76001620;2022-10-26T14:13:48;18.80;99.90
7044;DHT22;57890;52.36301240;9.76001620;2022-10-26T14:16:16;18.80;99.90
7044;DHT22;57890;52.36301240;9.76001620;2022-10-26T14:18:45;18.80;99.90
7044;DHT22;57890;52.36301240;9.76001620;2022-10-26T14:21:16;18.80;99.90